createdAt,value
2022-09-12T00:01:37.830Z,72.32
2022-09-12T00:04:07.490Z,77.40
2022-09-12T00:06:38.869Z,78.23
2022-09-12T00:09:13.635Z,77.33
2022-09-12T00:11:46.590Z,78.25
2022-09-12T00:14:18.557Z,78.29
2022-09-12T00:16:48.816Z,78.72
2022-09-12T00:19:19.859Z,78.26
2022-09-12T00:21:49.840Z,78.40
2022-09-12T00:24:19.688Z,78.11
2022-09-12T00:26:49.693Z,78.64
2022-09-12T00:29:21.277Z,78.74
2022-09-12T00:31:51.236Z,78.45
2022-09-12T00:34:21.654Z,75.97
2022-09-12T00:36:51.334Z,78.73
2022-09-12T00:39:21.059Z,74.39
2022-09-12T00:41:51.178Z,78.57
2022-09-12T00:44:23.970Z,78.27
2022-09-12T00:47:09.049Z,78.67
2022-09-12T00:50:02.353Z,78.41
2022-09-12T00:52:45.835Z,77.79
2022-09-12T00:55:26.534Z,78.86
2022-09-12T00:58:03.610Z,78.54
2022-09-12T01:00:33.732Z,78.36
2022-09-12T01:03:09.012Z,79.06
2022-09-12T01:05:45.594Z,79.07
2022-09-12T01:08:15.985Z,78.79
2022-09-12T01:10:45.472Z,75.52
2022-09-12T01:13:15.480Z,78.53
2022-09-12T01:15:45.162Z,78.95
2022-09-12T01:18:30.076Z,78.92
2022-09-12T01:21:40.316Z,78.22
2022-09-12T01:24:35.728Z,79.32
2022-09-12T01:27:19.312Z,79.47
2022-09-12T01:30:00.717Z,80.01
2022-09-12T01:32:39.833Z,79.62
2022-09-12T01:35:26.868Z,78.66
2022-09-12T01:38:12.943Z,78.46
2022-09-12T01:41:02.828Z,78.96
2022-09-12T01:43:45.535Z,77.73
2022-09-12T01:46:24.812Z,78.23
2022-09-12T01:49:23.123Z,78.61
2022-09-12T01:52:06.405Z,78.30
2022-09-12T01:54:45.248Z,77.79
2022-09-12T01:57:37.785Z,78.06
2022-09-12T02:00:12.257Z,76.90
2022-09-12T02:03:11.638Z,76.77
2022-09-12T02:06:05.760Z,76.53
2022-09-12T02:08:43.800Z,76.33
2022-09-12T02:11:14.992Z,76.99
2022-09-12T02:13:55.182Z,77.96
2022-09-12T02:16:37.997Z,78.53
2022-09-12T02:19:31.077Z,78.63
2022-09-12T02:22:03.790Z,77.51
2022-09-12T02:24:44.965Z,78.01
2022-09-12T02:27:49.524Z,78.08
2022-09-12T02:30:20.867Z,78.23
2022-09-12T02:33:14.252Z,79.69
2022-09-12T02:35:50.204Z,80.44
2022-09-12T02:38:45.795Z,79.48
2022-09-12T02:41:21.140Z,80.90
2022-09-12T02:43:53.665Z,81.19
2022-09-12T02:46:31.887Z,81.34
2022-09-12T02:49:02.249Z,81.61
2022-09-12T02:51:32.520Z,81.39
2022-09-12T02:54:04.229Z,83.29
2022-09-12T02:56:34.776Z,83.18
2022-09-12T02:59:11.231Z,84.72
2022-09-12T03:02:08.926Z,83.90
2022-09-12T03:05:09.126Z,84.58
2022-09-12T03:08:14.088Z,85.68
2022-09-12T03:11:21.070Z,85.42
2022-09-12T03:14:11.172Z,86.17
2022-09-12T03:16:55.024Z,87.22
2022-09-12T03:20:04.601Z,86.06
2022-09-12T03:22:51.142Z,86.38
2022-09-12T03:25:32.311Z,85.94
2022-09-12T03:28:08.469Z,86.66
2022-09-12T03:30:49.595Z,85.50
2022-09-12T03:33:21.793Z,84.36
2022-09-12T03:35:53.006Z,84.77
2022-09-12T03:38:24.207Z,85.31
2022-09-12T03:40:54.976Z,86.28
2022-09-12T03:43:25.119Z,86.58
2022-09-12T03:45:55.534Z,85.16
2022-09-12T03:48:25.241Z,86.26
2022-09-12T03:50:54.431Z,84.12
2022-09-12T03:53:23.987Z,86.58
2022-09-12T03:55:53.728Z,87.19
2022-09-12T03:58:23.636Z,87.54
2022-09-12T04:00:53.421Z,88.33
2022-09-12T04:03:22.665Z,86.96
2022-09-12T04:05:52.245Z,87.86
2022-09-12T04:08:21.986Z,88.33
2022-09-12T04:10:51.713Z,88.54
2022-09-12T04:13:21.373Z,89.23
2022-09-12T04:16:01.745Z,89.57
2022-09-12T04:18:32.090Z,89.78
2022-09-12T04:21:09.295Z,90.00
2022-09-12T04:23:39.830Z,90.05
2022-09-12T04:26:10.238Z,90.26
2022-09-12T04:28:40.835Z,90.48
2022-09-12T04:31:14.123Z,90.11
2022-09-12T04:33:45.459Z,90.29
2022-09-12T04:36:18.027Z,90.37
2022-09-12T04:38:49.620Z,90.85
2022-09-12T04:41:28.090Z,91.49
2022-09-12T04:44:00.700Z,91.45
2022-09-12T04:46:32.545Z,91.48
2022-09-12T04:49:02.875Z,91.80
2022-09-12T04:51:35.968Z,91.73
2022-09-12T04:54:09.355Z,91.85
2022-09-12T04:56:43.648Z,91.20
2022-09-12T04:59:16.883Z,91.70
2022-09-12T05:01:46.844Z,91.40
2022-09-12T05:04:17.233Z,91.48
2022-09-12T05:06:48.573Z,91.41
2022-09-12T05:09:18.423Z,91.34
2022-09-12T05:12:05.261Z,91.93
2022-09-12T05:14:35.963Z,91.81
2022-09-12T05:17:07.124Z,91.49
2022-09-12T05:19:37.984Z,91.34
2022-09-12T05:22:08.062Z,91.33
2022-09-12T05:24:40.215Z,91.12
2022-09-12T05:27:11.795Z,90.97
2022-09-12T05:29:41.770Z,90.92
2022-09-12T05:32:11.506Z,91.32
2022-09-12T05:34:42.360Z,91.82
2022-09-12T05:37:12.403Z,91.81
2022-09-12T05:39:42.362Z,92.35
2022-09-12T05:42:11.611Z,91.39
2022-09-12T05:44:41.293Z,92.46
2022-09-12T05:47:14.441Z,93.28
2022-09-12T05:49:46.553Z,92.92
2022-09-12T05:52:17.271Z,92.87
2022-09-12T05:54:48.860Z,92.91
2022-09-12T05:57:19.138Z,93.41
2022-09-12T05:59:48.722Z,92.25
2022-09-12T06:02:18.313Z,92.92
2022-09-12T06:04:48.077Z,93.26
2022-09-12T06:07:17.744Z,93.39
2022-09-12T06:09:47.380Z,93.47
2022-09-12T06:12:17.033Z,93.94
2022-09-12T06:14:46.473Z,92.55
2022-09-12T06:17:16.224Z,93.47
2022-09-12T06:19:45.429Z,92.52
2022-09-12T06:22:15.095Z,93.25
2022-09-12T06:24:44.800Z,93.61
2022-09-12T06:27:15.093Z,93.25
2022-09-12T06:29:45.219Z,93.22
2022-09-12T06:32:16.107Z,90.97
2022-09-12T06:34:48.754Z,91.56
2022-09-12T06:37:19.002Z,92.34
2022-09-12T06:39:49.762Z,91.38
2022-09-12T06:42:21.136Z,92.77
2022-09-12T06:44:58.983Z,92.88
2022-09-12T06:47:28.370Z,91.88
2022-09-12T06:49:58.247Z,92.34
2022-09-12T06:52:30.241Z,92.62
2022-09-12T06:55:00.181Z,92.10
2022-09-12T06:57:33.026Z,92.30
2022-09-12T07:00:03.234Z,92.53
2022-09-12T07:02:33.943Z,92.65
2022-09-12T07:05:03.798Z,92.34
2022-09-12T07:07:35.467Z,92.39
2022-09-12T07:10:06.725Z,92.31
2022-09-12T07:12:36.386Z,92.65
2022-09-12T07:15:06.343Z,92.71
2022-09-12T07:17:36.001Z,92.66
2022-09-12T07:20:05.951Z,92.52
2022-09-12T07:22:35.591Z,92.13
2022-09-12T07:25:06.188Z,92.14
2022-09-12T07:27:36.580Z,92.09
2022-09-12T07:30:08.935Z,92.16
2022-09-12T07:32:38.756Z,92.16
2022-09-12T07:35:08.858Z,92.50
2022-09-12T07:37:39.010Z,92.64
2022-09-12T07:40:09.101Z,92.68
2022-09-12T07:42:38.822Z,93.11
2022-09-12T07:45:09.029Z,93.04
2022-09-12T07:47:38.830Z,92.82
2022-09-12T07:50:08.922Z,92.85
2022-09-12T07:52:38.584Z,92.74
2022-09-12T07:55:08.522Z,92.62
2022-09-12T07:57:38.569Z,92.56
2022-09-12T08:00:11.816Z,92.90
2022-09-12T08:02:42.090Z,93.24
2022-09-12T08:05:11.926Z,93.65
2022-09-12T08:07:41.548Z,92.64
2022-09-12T08:10:12.252Z,93.30
2022-09-12T08:12:42.633Z,93.73
2022-09-12T08:15:13.028Z,93.90
2022-09-12T08:17:42.685Z,93.78
2022-09-12T08:20:13.654Z,94.19
2022-09-12T08:22:44.384Z,94.16
2022-09-12T08:25:14.430Z,94.05
2022-09-12T08:27:46.232Z,94.15
2022-09-12T08:30:16.618Z,94.47
2022-09-12T08:32:45.830Z,93.79
2022-09-12T08:35:16.223Z,94.51
2022-09-12T08:37:46.795Z,94.42
2022-09-12T08:40:18.609Z,94.70
2022-09-12T08:43:09.053Z,94.60
2022-09-12T08:45:46.592Z,94.87
2022-09-12T08:48:17.050Z,95.02
2022-09-12T08:50:49.991Z,94.78
2022-09-12T08:53:24.609Z,94.83
2022-09-12T08:56:01.822Z,94.63
2022-09-12T08:58:44.730Z,94.82
2022-09-12T09:01:47.347Z,94.67
2022-09-12T09:04:39.467Z,95.16
2022-09-12T09:07:39.504Z,95.40
2022-09-12T09:10:17.012Z,95.43
2022-09-12T09:13:01.987Z,95.46
2022-09-12T09:16:00.247Z,95.79
2022-09-12T09:18:40.729Z,95.80
2022-09-12T09:21:25.289Z,95.87
2022-09-12T09:24:04.730Z,95.86
2022-09-12T09:26:47.153Z,96.23
2022-09-12T09:29:21.054Z,94.95
2022-09-12T09:31:54.727Z,95.89
2022-09-12T09:34:27.263Z,95.89
2022-09-12T09:37:19.527Z,95.61
2022-09-12T09:40:19.171Z,95.01
2022-09-12T09:42:58.224Z,94.93
2022-09-12T09:45:31.353Z,94.71
2022-09-12T09:48:19.295Z,94.39
2022-09-12T09:50:51.248Z,94.42
2022-09-12T09:53:49.668Z,93.85
2022-09-12T09:56:41.140Z,93.49
2022-09-12T09:59:21.635Z,93.31
2022-09-12T10:02:04.783Z,92.15
2022-09-12T10:04:43.311Z,91.54
2022-09-12T10:07:25.899Z,91.05
2022-09-12T10:10:24.812Z,90.45
2022-09-12T10:13:11.055Z,90.81
2022-09-12T10:15:47.988Z,90.35
2022-09-12T10:18:39.828Z,89.92
2022-09-12T10:21:31.951Z,89.67
2022-09-12T10:24:08.406Z,88.59
2022-09-12T10:26:41.815Z,88.13
2022-09-12T10:29:33.283Z,86.77
2022-09-12T10:32:07.641Z,86.57
2022-09-12T10:34:41.234Z,86.33
2022-09-12T10:37:38.586Z,87.42
2022-09-12T10:40:22.605Z,86.64
2022-09-12T10:42:55.487Z,87.09
2022-09-12T10:45:30.164Z,87.15
2022-09-12T10:48:07.336Z,86.33
2022-09-12T10:50:47.013Z,83.87
2022-09-12T10:53:24.613Z,82.52
2022-09-12T10:56:03.317Z,81.53
2022-09-12T10:58:56.340Z,82.18
2022-09-12T11:01:37.891Z,84.67
2022-09-12T11:04:22.795Z,82.71
2022-09-12T11:07:13.635Z,80.16
2022-09-12T11:09:56.073Z,79.15
2022-09-12T11:12:34.060Z,75.42
2022-09-12T11:15:34.811Z,78.05
2022-09-12T11:18:46.141Z,76.60
2022-09-12T11:21:27.956Z,77.92
2022-09-12T11:24:29.342Z,79.43
2022-09-12T11:27:14.391Z,75.29
2022-09-12T11:30:12.286Z,77.20
2022-09-12T11:32:42.630Z,73.68
2022-09-12T11:35:20.945Z,74.19
2022-09-12T11:38:08.449Z,74.16
2022-09-12T11:41:00.868Z,72.70
2022-09-12T11:43:36.338Z,72.59
2022-09-12T11:46:45.210Z,73.97
2022-09-12T11:49:36.710Z,78.21
2022-09-12T11:52:16.969Z,77.26
2022-09-12T11:55:07.870Z,77.24
2022-09-12T11:57:55.292Z,78.06
2022-09-12T12:00:34.370Z,78.60
2022-09-12T12:03:16.014Z,78.99
2022-09-12T12:05:55.705Z,79.64
2022-09-12T12:08:28.874Z,80.31
2022-09-12T12:11:01.960Z,81.86
2022-09-12T12:13:36.344Z,82.05
2022-09-12T12:16:29.479Z,80.99
2022-09-12T12:19:18.289Z,82.50
2022-09-12T12:21:54.622Z,81.96
2022-09-12T12:24:26.921Z,80.76
2022-09-12T12:27:05.819Z,82.13
2022-09-12T12:29:44.272Z,82.86
2022-09-12T12:32:24.947Z,80.74
2022-09-12T12:35:03.683Z,81.79
2022-09-12T12:37:33.717Z,81.81
2022-09-12T12:40:27.422Z,80.98
2022-09-12T12:43:06.503Z,80.75
2022-09-12T12:45:39.253Z,82.04
2022-09-12T12:48:16.884Z,81.33
2022-09-12T12:50:48.071Z,78.57
2022-09-12T12:53:28.985Z,79.69
2022-09-12T12:55:59.313Z,79.37
2022-09-12T12:58:42.327Z,77.84
2022-09-12T13:01:23.899Z,77.25
2022-09-12T13:04:21.501Z,77.45
2022-09-12T13:07:09.544Z,74.35
2022-09-12T13:09:46.116Z,74.27
2022-09-12T13:12:26.099Z,69.41
2022-09-12T13:15:01.549Z,67.21
2022-09-12T13:17:33.500Z,67.22
2022-09-12T13:20:27.740Z,67.15
2022-09-12T13:22:59.461Z,66.08
2022-09-12T13:25:34.025Z,68.31
2022-09-12T13:28:13.404Z,66.20
2022-09-12T13:31:05.116Z,67.35
2022-09-12T13:33:52.275Z,69.72
2022-09-12T13:36:31.235Z,64.27
2022-09-12T13:39:39.203Z,65.77
2022-09-12T13:42:53.685Z,66.85
2022-09-12T13:45:28.185Z,67.54
2022-09-12T13:48:05.724Z,65.35
2022-09-12T13:50:44.226Z,66.21
2022-09-12T13:53:21.089Z,66.43
2022-09-12T13:55:59.146Z,66.09
2022-09-12T13:58:34.832Z,65.63
2022-09-12T14:01:17.184Z,68.02
2022-09-12T14:04:16.400Z,66.47
2022-09-12T14:06:52.152Z,63.12
2022-09-12T14:09:36.171Z,56.78
2022-09-12T14:12:15.642Z,54.56
2022-09-12T14:14:49.434Z,57.42
2022-09-12T14:17:25.254Z,62.30
2022-09-12T14:19:55.726Z,62.19
2022-09-12T14:22:25.578Z,55.46
2022-09-12T14:24:56.043Z,59.79
2022-09-12T14:27:48.810Z,59.65
2022-09-12T14:30:25.231Z,63.68
2022-09-12T14:33:13.565Z,61.87
2022-09-12T14:35:47.887Z,60.36
2022-09-12T14:38:24.017Z,64.94
2022-09-12T14:41:11.321Z,63.77
2022-09-12T14:43:55.083Z,62.58
2022-09-12T14:46:37.158Z,63.33
2022-09-12T14:49:14.859Z,59.89
2022-09-12T14:52:31.203Z,61.52
2022-09-12T14:55:03.733Z,62.69
2022-09-12T14:57:43.123Z,61.42
2022-09-12T15:00:13.373Z,59.98
2022-09-12T15:02:46.983Z,60.92
2022-09-12T15:05:23.040Z,62.06
2022-09-12T15:07:54.822Z,58.16
2022-09-12T15:10:27.580Z,58.83
2022-09-12T15:13:18.464Z,59.64
2022-09-12T15:15:53.756Z,61.39
2022-09-12T15:18:26.973Z,61.63
2022-09-12T15:21:02.320Z,60.81
2022-09-12T15:23:48.809Z,58.92
2022-09-12T15:26:28.576Z,56.51
2022-09-12T15:28:59.170Z,57.43
2022-09-12T15:31:31.970Z,55.93
2022-09-12T15:34:04.144Z,60.09
2022-09-12T15:36:34.253Z,59.78
2022-09-12T15:39:06.789Z,54.52
2022-09-12T15:41:39.084Z,53.22
2022-09-12T15:44:13.500Z,61.00
2022-09-12T15:46:44.037Z,61.15
2022-09-12T15:49:13.743Z,57.49
2022-09-12T15:51:43.670Z,55.48
2022-09-12T15:54:17.395Z,57.63
2022-09-12T15:56:47.865Z,54.67
2022-09-12T15:59:17.846Z,56.70
2022-09-12T16:01:48.276Z,56.24
2022-09-12T16:04:26.884Z,61.51
2022-09-12T16:06:58.190Z,61.14
2022-09-12T16:09:28.356Z,60.48
2022-09-12T16:11:58.940Z,60.65
2022-09-12T16:14:28.773Z,62.55
2022-09-12T16:16:58.477Z,62.72
2022-09-12T16:19:28.204Z,59.26
2022-09-12T16:21:57.944Z,60.52
2022-09-12T16:24:27.719Z,54.73
2022-09-12T16:27:01.169Z,56.02
2022-09-12T16:29:31.698Z,57.79
2022-09-12T16:32:01.465Z,59.19
2022-09-12T16:34:31.159Z,59.07
2022-09-12T16:37:00.842Z,61.47
2022-09-12T16:39:30.545Z,58.31
2022-09-12T16:42:00.261Z,58.62
2022-09-12T16:44:29.966Z,59.22
2022-09-12T16:46:59.605Z,61.35
2022-09-12T16:49:30.132Z,62.66
2022-09-12T16:52:00.724Z,64.24
2022-09-12T16:54:31.090Z,66.70
2022-09-12T16:57:00.864Z,68.03
2022-09-12T16:59:30.511Z,69.39
2022-09-12T17:02:00.266Z,67.49
2022-09-12T17:04:30.252Z,65.91
2022-09-12T17:07:00.627Z,63.04
2022-09-12T17:09:30.503Z,63.56
2022-09-12T17:12:00.197Z,63.53
2022-09-12T17:14:30.811Z,62.44
2022-09-12T17:17:00.550Z,65.41
2022-09-12T17:19:34.636Z,65.55
2022-09-12T17:22:04.885Z,66.54
2022-09-12T17:24:34.703Z,67.89
2022-09-12T17:27:04.915Z,69.71
2022-09-12T17:29:36.477Z,68.65
2022-09-12T17:32:06.838Z,68.96
2022-09-12T17:34:36.741Z,70.68
2022-09-12T17:37:06.675Z,71.20
2022-09-12T17:39:36.373Z,73.15
2022-09-12T17:42:09.081Z,74.54
2022-09-12T17:44:39.384Z,72.52
2022-09-12T17:47:09.963Z,72.62
2022-09-12T17:49:40.530Z,74.22
2022-09-12T17:52:10.183Z,73.86
2022-09-12T17:54:40.911Z,76.28
2022-09-12T17:57:11.271Z,74.57
2022-09-12T17:59:41.345Z,76.24
2022-09-12T18:02:14.601Z,74.43
2022-09-12T18:04:50.399Z,77.32
2022-09-12T18:07:21.927Z,76.80
2022-09-12T18:09:53.019Z,75.36
2022-09-12T18:12:22.823Z,74.69
2022-09-12T18:14:52.656Z,77.42
2022-09-12T18:17:22.680Z,75.22
2022-09-12T18:19:53.942Z,76.81
2022-09-12T18:22:24.211Z,73.53
2022-09-12T18:24:53.879Z,74.90
2022-09-12T18:27:23.554Z,74.76
2022-09-12T18:30:10.610Z,76.42
2022-09-12T18:32:43.118Z,75.63
2022-09-12T18:35:13.606Z,75.10
2022-09-12T18:37:45.050Z,75.54
2022-09-12T18:40:15.007Z,77.08
2022-09-12T18:42:44.819Z,78.13
2022-09-12T18:45:14.738Z,78.57
2022-09-12T18:47:44.445Z,78.74
2022-09-12T18:50:14.161Z,75.87
2022-09-12T18:52:43.861Z,78.33
2022-09-12T18:55:13.545Z,79.25
2022-09-12T18:57:43.264Z,77.56
2022-09-12T19:00:14.625Z,76.34
2022-09-12T19:02:44.981Z,75.91
2022-09-12T19:05:14.968Z,76.59
2022-09-12T19:07:44.654Z,77.65
2022-09-12T19:10:17.071Z,76.74
2022-09-12T19:12:47.570Z,77.25
2022-09-12T19:15:17.383Z,75.67
2022-09-12T19:17:47.105Z,77.47
2022-09-12T19:20:16.896Z,78.78
2022-09-12T19:22:46.597Z,78.14
2022-09-12T19:25:16.494Z,81.39
2022-09-12T19:27:46.441Z,81.45
2022-09-12T19:30:18.878Z,82.17
2022-09-12T19:32:51.699Z,81.32
2022-09-12T19:35:21.963Z,80.32
2022-09-12T19:37:51.662Z,80.86
2022-09-12T19:40:21.394Z,82.49
2022-09-12T19:42:51.144Z,81.46
2022-09-12T19:45:20.837Z,81.68
2022-09-12T19:47:50.478Z,81.71
2022-09-12T19:50:20.140Z,82.60
2022-09-12T19:52:49.829Z,82.81
2022-09-12T19:55:19.625Z,83.30
2022-09-12T19:57:49.292Z,83.76
2022-09-12T20:00:19.118Z,83.18
2022-09-12T20:02:52.916Z,83.74
2022-09-12T20:05:25.605Z,80.36
2022-09-12T20:07:55.656Z,80.35
2022-09-12T20:10:26.482Z,80.90
2022-09-12T20:12:56.138Z,78.45
2022-09-12T20:15:25.842Z,79.27
2022-09-12T20:17:56.978Z,77.49
2022-09-12T20:20:27.800Z,78.16
2022-09-12T20:22:57.475Z,78.88
2022-09-12T20:25:27.627Z,80.06
2022-09-12T20:28:00.145Z,80.88
2022-09-12T20:30:30.371Z,81.04
2022-09-12T20:33:00.347Z,80.98
2022-09-12T20:35:30.007Z,79.51
2022-09-12T20:37:59.739Z,81.34
2022-09-12T20:40:30.244Z,80.19
2022-09-12T20:42:59.918Z,79.43
2022-09-12T20:45:29.850Z,80.54
2022-09-12T20:47:59.521Z,79.43
2022-09-12T20:50:29.219Z,82.24
2022-09-12T20:52:58.993Z,81.55
2022-09-12T20:55:28.708Z,81.48
2022-09-12T20:57:58.671Z,82.37
2022-09-12T21:00:28.360Z,85.17
2022-09-12T21:02:58.225Z,85.14
2022-09-12T21:05:27.903Z,86.32
2022-09-12T21:07:57.601Z,87.47
2022-09-12T21:10:27.297Z,87.43
2022-09-12T21:12:57.230Z,87.22
2022-09-12T21:15:26.943Z,87.00
2022-09-12T21:17:56.686Z,86.95
2022-09-12T21:20:26.397Z,86.94
2022-09-12T21:22:56.312Z,86.51
2022-09-12T21:25:26.000Z,86.17
2022-09-12T21:27:55.705Z,87.08
2022-09-12T21:30:26.088Z,88.03
2022-09-12T21:32:55.790Z,88.08
2022-09-12T21:35:25.675Z,88.47
2022-09-12T21:37:55.514Z,88.17
2022-09-12T21:40:25.193Z,88.89
2022-09-12T21:42:54.977Z,89.54
2022-09-12T21:45:24.766Z,89.57
2022-09-12T21:47:54.518Z,89.16
2022-09-12T21:50:24.430Z,89.07
2022-09-12T21:52:54.681Z,88.41
2022-09-12T21:55:28.340Z,88.84
2022-09-12T21:57:58.899Z,89.15
2022-09-12T22:00:29.037Z,89.12
2022-09-12T22:02:59.090Z,88.62
2022-09-12T22:05:33.730Z,88.43
2022-09-12T22:08:04.065Z,89.80
2022-09-12T22:10:34.121Z,89.54
2022-09-12T22:13:04.314Z,89.05
2022-09-12T22:15:40.546Z,89.34
2022-09-12T22:18:11.146Z,89.38
2022-09-12T22:20:40.943Z,89.93
2022-09-12T22:23:32.423Z,90.15
2022-09-12T22:26:04.459Z,90.44
2022-09-12T22:28:34.689Z,89.79
2022-09-12T22:31:04.429Z,90.95
2022-09-12T22:33:34.295Z,90.98
2022-09-12T22:36:04.295Z,91.41
2022-09-12T22:38:34.081Z,90.28
2022-09-12T22:41:14.253Z,90.06
2022-09-12T22:43:44.555Z,90.33
2022-09-12T22:46:14.451Z,90.69
2022-09-12T22:48:44.412Z,91.23
2022-09-12T22:51:14.621Z,90.86
2022-09-12T22:53:44.493Z,90.09
2022-09-12T22:56:14.438Z,90.79
2022-09-12T22:58:44.678Z,90.54
2022-09-12T23:01:14.510Z,90.77
2022-09-12T23:03:44.349Z,90.49
2022-09-12T23:06:14.111Z,91.10
2022-09-12T23:08:43.940Z,91.03
2022-09-12T23:11:16.304Z,91.15
2022-09-12T23:13:48.504Z,91.34
2022-09-12T23:16:27.097Z,91.31
2022-09-12T23:18:57.770Z,90.91
2022-09-12T23:21:27.764Z,91.56
2022-09-12T23:23:57.669Z,91.59
2022-09-12T23:26:31.435Z,91.40
2022-09-12T23:29:03.402Z,91.49
2022-09-12T23:31:34.875Z,91.91
2022-09-12T23:34:07.169Z,92.61
2022-09-12T23:36:37.596Z,92.45
2022-09-12T23:39:07.624Z,92.29
2022-09-12T23:41:37.542Z,92.55
2022-09-12T23:44:07.436Z,92.72
2022-09-12T23:46:37.262Z,92.46
2022-09-12T23:49:07.048Z,92.01
2022-09-12T23:51:36.906Z,92.23
2022-09-12T23:54:06.649Z,91.75
2022-09-12T23:56:36.336Z,91.69
2022-09-12T23:59:06.962Z,92.07
